sensor_id;sensor_type;location;lat;lon;timestamp;temperature;humidity
44166;DHT22;30476;53.468;9.826;2023-08-01T00:00:51;18.40;99.90
44166;DHT22;30476;53.468;9.826;2023-08-01T00:03:17;18.40;99.90
44166;DHT22;30476;53.468;9.826;2023-08-01T00:05:43;18.40;99.90
44166;DHT22;30476;53.468;9.826;2023-08-01T00:08:14;18.40;99.90
44166;DHT22;30476;53.468;9.826;2023-08-01T00:10:40;18.40;99.90
44166;DHT22;30476;53.468;9.826;2023-08-01T00:13:07;18.40;99.90
44166;DHT22;30476;53.468;9.826;2023-08-01T00:15:33;18.40;99.90
44166;DHT22;30476;53.468;9.826;2023-08-01T00:17:59;18.40;99.90
44166;DHT22;30476;53.468;9.826;2023-08-01T00:20:25;18.40;99.90
44166;DHT22;30476;53.468;9.826;2023-08-01T00:22:51;18.40;99.90
44166;DHT22;30476;53.468;9.826;2023-08-01T00:25:17;18.40;99.90
44166;DHT22;30476;53.468;9.826;2023-08-01T00:27:43;18.40;99.90
44166;DHT22;30476;53.468;9.826;2023-08-01T00:30:09;18.30;99.90
44166;DHT22;30476;53.468;9.826;2023-08-01T00:32:35;18.30;99.90
44166;DHT22;30476;53.468;9.826;2023-08-01T00:35:01;18.30;99.90
44166;DHT22;30476;53.468;9.826;2023-08-01T00:37:27;18.30;99.90
44166;DHT22;30476;53.468;9.826;2023-08-01T00:39:53;18.30;99.90
44166;DHT22;30476;53.468;9.826;2023-08-01T00:42:19;18.30;99.90
44166;DHT22;30476;53.468;9.826;2023-08-01T00:44:44;18.30;99.90
44166;DHT22;30476;53.468;9.826;2023-08-01T00:47:12;18.30;99.90
44166;DHT22;30476;53.468;9.826;2023-08-01T00:49:38;18.30;99.90
44166;DHT22;30476;53.468;9.826;2023-08-01T00:52:05;18.20;99.90
44166;DHT22;30476;53.468;9.826;2023-08-01T00:54:30;18.20;99.90
44166;DHT22;30476;53.468;9.826;2023-08-01T00:57:05;18.20;99.90
44166;DHT22;30476;53.468;9.826;2023-08-01T00:59:31;18.20;99.90
44166;DHT22;30476;53.468;9.826;2023-08-01T01:01:58;18.20;99.90
44166;DHT22;30476;53.468;9.826;2023-08-01T01:04:24;18.20;99.90
44166;DHT22;30476;53.468;9.826;2023-08-01T01:06:56;18.20;99.90
44166;DHT22;30476;53.468;9.826;2023-08-01T01:09:22;18.20;99.90
44166;DHT22;30476;53.468;9.826;2023-08-01T01:11:48;18.20;99.90
44166;DHT22;30476;53.468;9.826;2023-08-01T01:14:14;18.20;99.90
44166;DHT22;30476;53.468;9.826;2023-08-01T01:16:40;18.20;99.90
44166;DHT22;30476;53.468;9.826;2023-08-01T01:19:08;18.20;99.90
44166;DHT22;30476;53.468;9.826;2023-08-01T01:21:35;18.20;99.90
44166;DHT22;30476;53.468;9.826;2023-08-01T01:24:04;18.10;99.90
44166;DHT22;30476;53.468;9.826;2023-08-01T01:26:32;18.10;99.90
44166;DHT22;30476;53.468;9.826;2023-08-01T01:28:59;18.10;99.90
44166;DHT22;30476;53.468;9.826;2023-08-01T01:31:26;18.10;99.90
44166;DHT22;30476;53.468;9.826;2023-08-01T01:33:54;18.10;99.90
44166;DHT22;30476;53.468;9.826;2023-08-01T01:36:20;18.10;99.90
44166;DHT22;30476;53.468;9.826;2023-08-01T01:38:46;18.20;99.90
44166;DHT22;30476;53.468;9.826;2023-08-01T01:41:12;18.10;99.90
44166;DHT22;30476;53.468;9.826;2023-08-01T01:43:37;18.20;99.90
44166;DHT22;30476;53.468;9.826;2023-08-01T01:46:04;18.20;99.90
44166;DHT22;30476;53.468;9.826;2023-08-01T01:48:29;18.20;99.90
44166;DHT22;30476;53.468;9.826;2023-08-01T01:50:55;18.20;99.90
44166;DHT22;30476;53.468;9.826;2023-08-01T01:53:21;18.20;99.90
44166;DHT22;30476;53.468;9.826;2023-08-01T01:55:47;18.20;99.90
44166;DHT22;30476;53.468;9.826;2023-08-01T01:58:12;18.20;99.90
44166;DHT22;30476;53.468;9.826;2023-08-01T02:00:38;18.20;99.90
44166;DHT22;30476;53.468;9.826;2023-08-01T02:03:04;18.20;99.90
44166;DHT22;30476;53.468;9.826;2023-08-01T02:05:30;18.20;99.90
44166;DHT22;30476;53.468;9.826;2023-08-01T02:07:56;18.20;99.90
44166;DHT22;30476;53.468;9.826;2023-08-01T02:10:21;18.20;99.90
44166;DHT22;30476;53.468;9.826;2023-08-01T02:12:47;18.20;99.90
44166;DHT22;30476;53.468;9.826;2023-08-01T02:15:13;18.20;99.90
44166;DHT22;30476;53.468;9.826;2023-08-01T02:17:39;18.20;99.90
44166;DHT22;30476;53.468;9.826;2023-08-01T02:20:05;18.20;99.90
44166;DHT22;30476;53.468;9.826;2023-08-01T02:22:32;18.20;99.90
44166;DHT22;30476;53.468;9.826;2023-08-01T02:24:58;18.20;99.90
44166;DHT22;30476;53.468;9.826;2023-08-01T02:27:24;18.20;99.90
44166;DHT22;30476;53.468;9.826;2023-08-01T02:29:50;18.20;99.90
44166;DHT22;30476;53.468;9.826;2023-08-01T02:32:16;18.20;99.90
44166;DHT22;30476;53.468;9.826;2023-08-01T02:34:42;18.20;99.90
44166;DHT22;30476;53.468;9.826;2023-08-01T02:37:08;18.20;99.90
44166;DHT22;30476;53.468;9.826;2023-08-01T02:39:35;18.20;99.90
44166;DHT22;30476;53.468;9.826;2023-08-01T02:42:01;18.20;99.90
44166;DHT22;30476;53.468;9.826;2023-08-01T02:44:27;18.20;99.90
44166;DHT22;30476;53.468;9.826;2023-08-01T02:46:53;18.20;99.90
44166;DHT22;30476;53.468;9.826;2023-08-01T02:49:18;18.20;99.90
44166;DHT22;30476;53.468;9.826;2023-08-01T02:51:44;18.20;99.90
44166;DHT22;30476;53.468;9.826;2023-08-01T02:54:10;18.10;99.90
44166;DHT22;30476;53.468;9.826;2023-08-01T02:56:36;18.20;99.90
44166;DHT22;30476;53.468;9.826;2023-08-01T02:59:09;18.20;99.90
44166;DHT22;30476;53.468;9.826;2023-08-01T03:01:36;18.20;99.90
44166;DHT22;30476;53.468;9.826;2023-08-01T03:04:03;18.20;99.90
44166;DHT22;30476;53.468;9.826;2023-08-01T03:06:29;18.20;99.90
44166;DHT22;30476;53.468;9.826;2023-08-01T03:08:55;18.20;99.90
44166;DHT22;30476;53.468;9.826;2023-08-01T03:11:21;18.20;99.90
44166;DHT22;30476;53.468;9.826;2023-08-01T03:13:47;18.30;99.90
44166;DHT22;30476;53.468;9.826;2023-08-01T03:16:13;18.30;99.90
44166;DHT22;30476;53.468;9.826;2023-08-01T03:18:38;18.30;99.90
44166;DHT22;30476;53.468;9.826;2023-08-01T03:21:04;18.20;99.90
44166;DHT22;30476;53.468;9.826;2023-08-01T03:23:30;18.20;99.90
44166;DHT22;30476;53.468;9.826;2023-08-01T03:25:56;18.20;99.90
44166;DHT22;30476;53.468;9.826;2023-08-01T03:28:22;18.20;99.90
44166;DHT22;30476;53.468;9.826;2023-08-01T03:30:48;18.10;99.90
44166;DHT22;30476;53.468;9.826;2023-08-01T03:33:16;18.20;99.90
44166;DHT22;30476;53.468;9.826;2023-08-01T03:35:42;18.20;99.90
44166;DHT22;30476;53.468;9.826;2023-08-01T03:38:07;18.20;99.90
44166;DHT22;30476;53.468;9.826;2023-08-01T03:40:33;18.20;99.90
44166;DHT22;30476;53.468;9.826;2023-08-01T03:42:59;18.20;99.90
44166;DHT22;30476;53.468;9.826;2023-08-01T03:45:25;18.20;99.90
44166;DHT22;30476;53.468;9.826;2023-08-01T03:47:51;18.20;99.90
44166;DHT22;30476;53.468;9.826;2023-08-01T03:50:17;18.20;99.90
44166;DHT22;30476;53.468;9.826;2023-08-01T03:52:42;18.20;99.90
44166;DHT22;30476;53.468;9.826;2023-08-01T03:55:08;18.20;99.90
44166;DHT22;30476;53.468;9.826;2023-08-01T03:57:34;18.20;99.90
44166;DHT22;30476;53.468;9.826;2023-08-01T04:00:00;18.20;99.90
44166;DHT22;30476;53.468;9.826;2023-08-01T04:02:26;18.10;99.90
44166;DHT22;30476;53.468;9.826;2023-08-01T04:04:52;18.10;99.90
44166;DHT22;30476;53.468;9.826;2023-08-01T04:07:18;18.10;99.90
44166;DHT22;30476;53.468;9.826;2023-08-01T04:09:44;18.10;99.90
44166;DHT22;30476;53.468;9.826;2023-08-01T04:12:10;18.10;99.90
44166;DHT22;30476;53.468;9.826;2023-08-01T04:14:36;18.10;99.90
44166;DHT22;30476;53.468;9.826;2023-08-01T04:17:01;18.20;99.90
44166;DHT22;30476;53.468;9.826;2023-08-01T04:19:27;18.20;99.90
44166;DHT22;30476;53.468;9.826;2023-08-01T04:21:53;18.10;99.90
44166;DHT22;30476;53.468;9.826;2023-08-01T04:24:19;18.20;99.90
44166;DHT22;30476;53.468;9.826;2023-08-01T04:26:45;18.10;99.90
44166;DHT22;30476;53.468;9.826;2023-08-01T04:29:10;18.10;99.90
44166;DHT22;30476;53.468;9.826;2023-08-01T04:31:41;18.10;99.90
44166;DHT22;30476;53.468;9.826;2023-08-01T04:34:07;18.10;99.90
44166;DHT22;30476;53.468;9.826;2023-08-01T04:36:32;18.10;99.90
44166;DHT22;30476;53.468;9.826;2023-08-01T04:38:58;18.10;99.90
44166;DHT22;30476;53.468;9.826;2023-08-01T04:41:24;18.10;99.90
44166;DHT22;30476;53.468;9.826;2023-08-01T04:43:50;18.10;99.90
44166;DHT22;30476;53.468;9.826;2023-08-01T04:46:15;18.10;99.90
44166;DHT22;30476;53.468;9.826;2023-08-01T04:48:41;18.10;99.90
44166;DHT22;30476;53.468;9.826;2023-08-01T04:51:07;18.10;99.90
44166;DHT22;30476;53.468;9.826;2023-08-01T04:53:32;18.10;99.90
44166;DHT22;30476;53.468;9.826;2023-08-01T04:55:59;18.20;99.90
44166;DHT22;30476;53.468;9.826;2023-08-01T04:58:25;18.20;99.90
44166;DHT22;30476;53.468;9.826;2023-08-01T05:00:51;18.20;99.90
44166;DHT22;30476;53.468;9.826;2023-08-01T05:03:16;18.20;99.90
44166;DHT22;30476;53.468;9.826;2023-08-01T05:05:42;18.20;99.90
44166;DHT22;30476;53.468;9.826;2023-08-01T05:08:08;18.20;99.90
44166;DHT22;30476;53.468;9.826;2023-08-01T05:10:34;18.10;99.90
44166;DHT22;30476;53.468;9.826;2023-08-01T05:12:59;18.10;99.90
44166;DHT22;30476;53.468;9.826;2023-08-01T05:15:25;18.20;99.90
44166;DHT22;30476;53.468;9.826;2023-08-01T05:17:52;18.20;99.90
44166;DHT22;30476;53.468;9.826;2023-08-01T05:20:21;18.20;99.90
44166;DHT22;30476;53.468;9.826;2023-08-01T05:22:46;18.20;99.90
44166;DHT22;30476;53.468;9.826;2023-08-01T05:25:12;18.20;99.90
44166;DHT22;30476;53.468;9.826;2023-08-01T05:27:38;18.20;99.90
44166;DHT22;30476;53.468;9.826;2023-08-01T05:30:04;18.10;99.90
44166;DHT22;30476;53.468;9.826;2023-08-01T05:32:30;18.10;99.90
44166;DHT22;30476;53.468;9.826;2023-08-01T05:34:55;18.10;99.90
44166;DHT22;30476;53.468;9.826;2023-08-01T05:37:21;18.10;99.90
44166;DHT22;30476;53.468;9.826;2023-08-01T05:39:47;18.20;99.90
44166;DHT22;30476;53.468;9.826;2023-08-01T05:42:13;18.10;99.90
44166;DHT22;30476;53.468;9.826;2023-08-01T05:44:39;18.10;99.90
44166;DHT22;30476;53.468;9.826;2023-08-01T05:47:04;18.10;99.90
44166;DHT22;30476;53.468;9.826;2023-08-01T05:49:30;18.10;99.90
44166;DHT22;30476;53.468;9.826;2023-08-01T05:51:56;18.10;99.90
44166;DHT22;30476;53.468;9.826;2023-08-01T05:54:22;18.00;99.90
44166;DHT22;30476;53.468;9.826;2023-08-01T05:56:48;18.10;99.90
44166;DHT22;30476;53.468;9.826;2023-08-01T05:59:13;18.00;99.90
44166;DHT22;30476;53.468;9.826;2023-08-01T06:01:39;18.00;99.90
44166;DHT22;30476;53.468;9.826;2023-08-01T06:04:05;18.10;99.90
44166;DHT22;30476;53.468;9.826;2023-08-01T06:06:31;18.10;99.90
44166;DHT22;30476;53.468;9.826;2023-08-01T06:08:57;18.00;99.90
44166;DHT22;30476;53.468;9.826;2023-08-01T06:11:22;18.10;99.90
44166;DHT22;30476;53.468;9.826;2023-08-01T06:13:48;18.10;99.90
44166;DHT22;30476;53.468;9.826;2023-08-01T06:16:14;18.10;99.90
44166;DHT22;30476;53.468;9.826;2023-08-01T06:18:40;18.20;99.90
44166;DHT22;30476;53.468;9.826;2023-08-01T06:21:06;18.20;99.90
44166;DHT22;30476;53.468;9.826;2023-08-01T06:23:31;18.20;99.90
44166;DHT22;30476;53.468;9.826;2023-08-01T06:25:57;18.20;99.90
44166;DHT22;30476;53.468;9.826;2023-08-01T06:28:23;18.20;99.90
44166;DHT22;30476;53.468;9.826;2023-08-01T06:30:49;18.20;99.90
44166;DHT22;30476;53.468;9.826;2023-08-01T06:33:15;18.20;99.90
44166;DHT22;30476;53.468;9.826;2023-08-01T06:35:40;18.20;99.90
44166;DHT22;30476;53.468;9.826;2023-08-01T06:38:06;18.20;99.90
44166;DHT22;30476;53.468;9.826;2023-08-01T06:40:32;18.20;99.90
44166;DHT22;30476;53.468;9.826;2023-08-01T06:42:57;18.20;99.90
44166;DHT22;30476;53.468;9.826;2023-08-01T06:45:23;18.20;99.90
44166;DHT22;30476;53.468;9.826;2023-08-01T06:47:49;18.20;99.90
44166;DHT22;30476;53.468;9.826;2023-08-01T06:50:15;18.10;99.90
44166;DHT22;30476;53.468;9.826;2023-08-01T06:52:41;18.10;99.90
44166;DHT22;30476;53.468;9.826;2023-08-01T06:55:06;18.10;99.90
44166;DHT22;30476;53.468;9.826;2023-08-01T06:57:32;18.10;99.90
44166;DHT22;30476;53.468;9.826;2023-08-01T06:59:58;18.10;99.90
44166;DHT22;30476;53.468;9.826;2023-08-01T07:02:24;18.10;99.90
44166;DHT22;30476;53.468;9.826;2023-08-01T07:04:51;18.10;99.90
44166;DHT22;30476;53.468;9.826;2023-08-01T07:07:16;18.10;99.90
44166;DHT22;30476;53.468;9.826;2023-08-01T07:09:42;18.10;99.90
44166;DHT22;30476;53.468;9.826;2023-08-01T07:12:08;18.10;99.90
44166;DHT22;30476;53.468;9.826;2023-08-01T07:14:34;18.10;99.90
44166;DHT22;30476;53.468;9.826;2023-08-01T07:17:00;18.20;99.90
44166;DHT22;30476;53.468;9.826;2023-08-01T07:19:26;18.20;99.90
44166;DHT22;30476;53.468;9.826;2023-08-01T07:21:51;18.20;99.90
44166;DHT22;30476;53.468;9.826;2023-08-01T07:24:17;18.30;99.90
44166;DHT22;30476;53.468;9.826;2023-08-01T07:26:43;18.30;99.90
44166;DHT22;30476;53.468;9.826;2023-08-01T07:29:09;18.30;99.90
44166;DHT22;30476;53.468;9.826;2023-08-01T07:31:36;18.40;99.90
44166;DHT22;30476;53.468;9.826;2023-08-01T07:34:02;18.50;99.90
44166;DHT22;30476;53.468;9.826;2023-08-01T07:36:27;18.50;99.90
44166;DHT22;30476;53.468;9.826;2023-08-01T07:38:53;18.60;99.90
44166;DHT22;30476;53.468;9.826;2023-08-01T07:41:21;18.60;99.90
44166;DHT22;30476;53.468;9.826;2023-08-01T07:43:47;18.70;99.90
44166;DHT22;30476;53.468;9.826;2023-08-01T07:46:14;18.80;99.90
44166;DHT22;30476;53.468;9.826;2023-08-01T07:48:40;18.90;99.90
44166;DHT22;30476;53.468;9.826;2023-08-01T07:51:06;18.90;99.90
44166;DHT22;30476;53.468;9.826;2023-08-01T07:53:35;19.00;99.90
44166;DHT22;30476;53.468;9.826;2023-08-01T07:56:01;19.20;99.90
44166;DHT22;30476;53.468;9.826;2023-08-01T07:58:28;19.30;99.90
44166;DHT22;30476;53.468;9.826;2023-08-01T08:00:54;19.40;99.90
44166;DHT22;30476;53.468;9.826;2023-08-01T08:03:20;19.50;99.90
44166;DHT22;30476;53.468;9.826;2023-08-01T08:05:48;19.50;99.90
44166;DHT22;30476;53.468;9.826;2023-08-01T08:08:14;19.50;99.90
44166;DHT22;30476;53.468;9.826;2023-08-01T08:10:40;19.60;99.90
44166;DHT22;30476;53.468;9.826;2023-08-01T08:13:06;19.60;99.90
44166;DHT22;30476;53.468;9.826;2023-08-01T08:15:31;19.60;99.90
44166;DHT22;30476;53.468;9.826;2023-08-01T08:18:00;19.60;99.90
44166;DHT22;30476;53.468;9.826;2023-08-01T08:20:30;19.60;99.90
44166;DHT22;30476;53.468;9.826;2023-08-01T08:22:56;19.60;99.90
44166;DHT22;30476;53.468;9.826;2023-08-01T08:25:22;19.60;99.90
44166;DHT22;30476;53.468;9.826;2023-08-01T08:27:49;19.60;99.90
44166;DHT22;30476;53.468;9.826;2023-08-01T08:30:15;19.70;99.90
44166;DHT22;30476;53.468;9.826;2023-08-01T08:32:40;19.70;99.90
44166;DHT22;30476;53.468;9.826;2023-08-01T08:35:06;19.80;99.90
44166;DHT22;30476;53.468;9.826;2023-08-01T08:37:32;19.80;99.90
44166;DHT22;30476;53.468;9.826;2023-08-01T08:39:58;19.80;99.90
44166;DHT22;30476;53.468;9.826;2023-08-01T08:42:24;19.90;99.90
44166;DHT22;30476;53.468;9.826;2023-08-01T08:44:54;20.00;99.90
44166;DHT22;30476;53.468;9.826;2023-08-01T08:47:24;20.10;99.90
44166;DHT22;30476;53.468;9.826;2023-08-01T08:49:51;20.20;99.90
44166;DHT22;30476;53.468;9.826;2023-08-01T08:52:18;20.20;99.90
44166;DHT22;30476;53.468;9.826;2023-08-01T08:54:45;20.10;99.90
44166;DHT22;30476;53.468;9.826;2023-08-01T08:57:12;20.10;99.90
44166;DHT22;30476;53.468;9.826;2023-08-01T08:59:39;20.10;99.90
44166;DHT22;30476;53.468;9.826;2023-08-01T09:02:05;20.10;99.90
44166;DHT22;30476;53.468;9.826;2023-08-01T09:04:31;20.00;99.90
44166;DHT22;30476;53.468;9.826;2023-08-01T09:07:02;20.00;99.90
44166;DHT22;30476;53.468;9.826;2023-08-01T09:09:29;20.00;99.90
44166;DHT22;30476;53.468;9.826;2023-08-01T09:11:54;19.90;99.90
44166;DHT22;30476;53.468;9.826;2023-08-01T09:14:22;19.80;99.90
44166;DHT22;30476;53.468;9.826;2023-08-01T09:16:48;19.70;99.90
44166;DHT22;30476;53.468;9.826;2023-08-01T09:19:21;19.60;99.90
44166;DHT22;30476;53.468;9.826;2023-08-01T09:21:47;19.50;99.90
44166;DHT22;30476;53.468;9.826;2023-08-01T09:24:15;19.50;99.90
44166;DHT22;30476;53.468;9.826;2023-08-01T09:26:42;19.50;99.90
44166;DHT22;30476;53.468;9.826;2023-08-01T09:29:08;19.50;99.90
44166;DHT22;30476;53.468;9.826;2023-08-01T09:31:36;19.50;99.90
44166;DHT22;30476;53.468;9.826;2023-08-01T09:34:04;19.50;99.90
44166;DHT22;30476;53.468;9.826;2023-08-01T09:36:33;19.60;99.90
44166;DHT22;30476;53.468;9.826;2023-08-01T09:39:03;19.60;99.90
44166;DHT22;30476;53.468;9.826;2023-08-01T09:41:30;19.70;99.90
44166;DHT22;30476;53.468;9.826;2023-08-01T09:43:57;19.90;99.90
44166;DHT22;30476;53.468;9.826;2023-08-01T09:46:24;20.00;99.90
44166;DHT22;30476;53.468;9.826;2023-08-01T09:48:50;20.10;99.90
44166;DHT22;30476;53.468;9.826;2023-08-01T09:51:17;20.20;99.90
44166;DHT22;30476;53.468;9.826;2023-08-01T09:53:51;20.30;99.90
44166;DHT22;30476;53.468;9.826;2023-08-01T09:58:47;20.70;99.90
44166;DHT22;30476;53.468;9.826;2023-08-01T10:01:19;20.80;99.90
44166;DHT22;30476;53.468;9.826;2023-08-01T10:03:51;21.00;99.90
44166;DHT22;30476;53.468;9.826;2023-08-01T10:06:24;21.10;99.90
44166;DHT22;30476;53.468;9.826;2023-08-01T10:08:53;21.30;99.90
44166;DHT22;30476;53.468;9.826;2023-08-01T10:11:20;21.20;99.90
44166;DHT22;30476;53.468;9.826;2023-08-01T10:13:47;21.30;99.90
44166;DHT22;30476;53.468;9.826;2023-08-01T10:16:14;21.30;99.90
44166;DHT22;30476;53.468;9.826;2023-08-01T10:18:41;21.30;99.90
44166;DHT22;30476;53.468;9.826;2023-08-01T10:21:11;21.50;99.90
44166;DHT22;30476;53.468;9.826;2023-08-01T10:23:38;21.60;99.90
44166;DHT22;30476;53.468;9.826;2023-08-01T10:26:09;21.70;99.90
44166;DHT22;30476;53.468;9.826;2023-08-01T10:28:41;21.80;99.90
44166;DHT22;30476;53.468;9.826;2023-08-01T10:31:14;21.80;99.90
44166;DHT22;30476;53.468;9.826;2023-08-01T10:33:42;21.90;99.90
44166;DHT22;30476;53.468;9.826;2023-08-01T10:36:19;22.10;99.90
44166;DHT22;30476;53.468;9.826;2023-08-01T10:38:50;22.10;99.90
44166;DHT22;30476;53.468;9.826;2023-08-01T10:41:42;22.10;99.90
44166;DHT22;30476;53.468;9.826;2023-08-01T10:44:12;22.20;99.90
44166;DHT22;30476;53.468;9.826;2023-08-01T10:49:17;22.40;99.90
44166;DHT22;30476;53.468;9.826;2023-08-01T10:51:44;22.50;99.90
44166;DHT22;30476;53.468;9.826;2023-08-01T10:54:24;22.60;99.90
44166;DHT22;30476;53.468;9.826;2023-08-01T10:56:51;22.80;99.90
44166;DHT22;30476;53.468;9.826;2023-08-01T10:59:18;23.00;99.90
44166;DHT22;30476;53.468;9.826;2023-08-01T11:01:48;23.10;99.90
44166;DHT22;30476;53.468;9.826;2023-08-01T11:04:16;23.10;99.90
44166;DHT22;30476;53.468;9.826;2023-08-01T11:06:46;23.20;99.90
44166;DHT22;30476;53.468;9.826;2023-08-01T11:09:23;23.10;99.90
44166;DHT22;30476;53.468;9.826;2023-08-01T11:11:54;23.00;99.90
44166;DHT22;30476;53.468;9.826;2023-08-01T11:14:28;22.60;99.90
44166;DHT22;30476;53.468;9.826;2023-08-01T11:16:55;22.40;99.90
44166;DHT22;30476;53.468;9.826;2023-08-01T11:19:25;22.20;99.90
44166;DHT22;30476;53.468;9.826;2023-08-01T11:21:52;22.10;99.90
44166;DHT22;30476;53.468;9.826;2023-08-01T11:24:18;21.80;99.90
44166;DHT22;30476;53.468;9.826;2023-08-01T11:26:47;21.60;99.90
44166;DHT22;30476;53.468;9.826;2023-08-01T11:29:14;21.50;99.90
44166;DHT22;30476;53.468;9.826;2023-08-01T11:31:41;21.40;99.90
44166;DHT22;30476;53.468;9.826;2023-08-01T11:34:07;21.20;99.90
44166;DHT22;30476;53.468;9.826;2023-08-01T11:36:36;21.10;99.90
44166;DHT22;30476;53.468;9.826;2023-08-01T11:39:04;21.00;99.90
44166;DHT22;30476;53.468;9.826;2023-08-01T11:41:30;20.90;99.90
44166;DHT22;30476;53.468;9.826;2023-08-01T11:44:02;20.80;99.90
44166;DHT22;30476;53.468;9.826;2023-08-01T11:46:35;20.70;99.90
44166;DHT22;30476;53.468;9.826;2023-08-01T11:49:07;20.60;99.90
44166;DHT22;30476;53.468;9.826;2023-08-01T11:51:41;20.60;99.90
44166;DHT22;30476;53.468;9.826;2023-08-01T11:54:08;20.60;99.90
44166;DHT22;30476;53.468;9.826;2023-08-01T11:56:36;20.80;99.90
44166;DHT22;30476;53.468;9.826;2023-08-01T11:59:10;20.80;99.90
44166;DHT22;30476;53.468;9.826;2023-08-01T12:01:43;20.90;99.90
44166;DHT22;30476;53.468;9.826;2023-08-01T12:04:10;21.00;99.90
44166;DHT22;30476;53.468;9.826;2023-08-01T12:06:36;21.10;99.90
44166;DHT22;30476;53.468;9.826;2023-08-01T12:09:12;21.20;99.90
44166;DHT22;30476;53.468;9.826;2023-08-01T12:11:39;21.20;99.90
44166;DHT22;30476;53.468;9.826;2023-08-01T12:14:11;21.30;99.90
44166;DHT22;30476;53.468;9.826;2023-08-01T12:16:38;21.20;99.90
44166;DHT22;30476;53.468;9.826;2023-08-01T12:19:04;21.20;99.90
44166;DHT22;30476;53.468;9.826;2023-08-01T12:21:32;21.10;99.90
44166;DHT22;30476;53.468;9.826;2023-08-01T12:23:58;20.90;99.90
44166;DHT22;30476;53.468;9.826;2023-08-01T12:26:24;20.70;99.90
44166;DHT22;30476;53.468;9.826;2023-08-01T12:28:50;20.50;99.90
44166;DHT22;30476;53.468;9.826;2023-08-01T12:31:20;20.30;99.90
44166;DHT22;30476;53.468;9.826;2023-08-01T12:33:46;20.20;99.90
44166;DHT22;30476;53.468;9.826;2023-08-01T12:36:14;20.10;99.90
44166;DHT22;30476;53.468;9.826;2023-08-01T12:38:40;20.00;99.90
44166;DHT22;30476;53.468;9.826;2023-08-01T12:41:06;20.00;99.90
44166;DHT22;30476;53.468;9.826;2023-08-01T12:43:32;20.00;99.90
44166;DHT22;30476;53.468;9.826;2023-08-01T12:45:58;19.90;99.90
44166;DHT22;30476;53.468;9.826;2023-08-01T12:48:24;19.90;99.90
44166;DHT22;30476;53.468;9.826;2023-08-01T12:50:50;20.00;99.90
44166;DHT22;30476;53.468;9.826;2023-08-01T12:53:16;20.00;99.90
44166;DHT22;30476;53.468;9.826;2023-08-01T12:55:46;20.20;99.90
44166;DHT22;30476;53.468;9.826;2023-08-01T12:58:13;20.50;99.90
44166;DHT22;30476;53.468;9.826;2023-08-01T13:00:39;20.70;99.90
44166;DHT22;30476;53.468;9.826;2023-08-01T13:03:05;21.00;99.90
44166;DHT22;30476;53.468;9.826;2023-08-01T13:05:37;21.20;99.90
44166;DHT22;30476;53.468;9.826;2023-08-01T13:08:03;21.50;99.90
44166;DHT22;30476;53.468;9.826;2023-08-01T13:10:31;21.60;99.90
44166;DHT22;30476;53.468;9.826;2023-08-01T13:12:57;21.80;99.90
44166;DHT22;30476;53.468;9.826;2023-08-01T13:15:23;22.00;99.90
44166;DHT22;30476;53.468;9.826;2023-08-01T13:17:49;22.20;99.90
44166;DHT22;30476;53.468;9.826;2023-08-01T13:20:16;22.20;99.90
44166;DHT22;30476;53.468;9.826;2023-08-01T13:22:42;22.20;99.90
44166;DHT22;30476;53.468;9.826;2023-08-01T13:25:08;22.20;99.90
44166;DHT22;30476;53.468;9.826;2023-08-01T13:27:35;22.20;99.90
44166;DHT22;30476;53.468;9.826;2023-08-01T13:30:02;22.10;99.90
44166;DHT22;30476;53.468;9.826;2023-08-01T13:32:28;22.00;99.90
44166;DHT22;30476;53.468;9.826;2023-08-01T13:34:53;22.00;99.90
44166;DHT22;30476;53.468;9.826;2023-08-01T13:37:19;21.90;99.90
44166;DHT22;30476;53.468;9.826;2023-08-01T13:39:45;21.80;99.90
44166;DHT22;30476;53.468;9.826;2023-08-01T13:42:12;21.70;99.90
44166;DHT22;30476;53.468;9.826;2023-08-01T13:44:40;21.80;99.90
44166;DHT22;30476;53.468;9.826;2023-08-01T13:47:06;21.80;99.90
44166;DHT22;30476;53.468;9.826;2023-08-01T13:49:31;22.00;99.90
44166;DHT22;30476;53.468;9.826;2023-08-01T13:51:59;22.10;99.90
44166;DHT22;30476;53.468;9.826;2023-08-01T13:54:26;22.20;99.90
44166;DHT22;30476;53.468;9.826;2023-08-01T13:56:52;22.20;99.90
44166;DHT22;30476;53.468;9.826;2023-08-01T13:59:19;22.20;99.90
44166;DHT22;30476;53.468;9.826;2023-08-01T14:01:47;22.30;99.90
44166;DHT22;30476;53.468;9.826;2023-08-01T14:04:13;22.20;99.90
44166;DHT22;30476;53.468;9.826;2023-08-01T14:06:42;22.20;99.90
44166;DHT22;30476;53.468;9.826;2023-08-01T14:09:08;22.10;99.90
44166;DHT22;30476;53.468;9.826;2023-08-01T14:11:35;22.10;99.90
44166;DHT22;30476;53.468;9.826;2023-08-01T14:14:01;22.00;99.90
44166;DHT22;30476;53.468;9.826;2023-08-01T14:16:28;21.90;99.90
44166;DHT22;30476;53.468;9.826;2023-08-01T14:18:53;21.70;99.90
44166;DHT22;30476;53.468;9.826;2023-08-01T14:21:19;21.60;99.90
44166;DHT22;30476;53.468;9.826;2023-08-01T14:23:45;21.60;99.90
44166;DHT22;30476;53.468;9.826;2023-08-01T14:26:11;21.50;99.90
44166;DHT22;30476;53.468;9.826;2023-08-01T14:28:37;21.40;99.90
44166;DHT22;30476;53.468;9.826;2023-08-01T14:31:03;21.40;99.90
44166;DHT22;30476;53.468;9.826;2023-08-01T14:33:29;21.40;99.90
44166;DHT22;30476;53.468;9.826;2023-08-01T14:35:56;21.40;99.90
44166;DHT22;30476;53.468;9.826;2023-08-01T14:38:22;21.40;99.90
44166;DHT22;30476;53.468;9.826;2023-08-01T14:40:48;21.40;99.90
44166;DHT22;30476;53.468;9.826;2023-08-01T14:43:13;21.40;99.90
44166;DHT22;30476;53.468;9.826;2023-08-01T14:45:40;21.40;99.90
44166;DHT22;30476;53.468;9.826;2023-08-01T14:48:09;21.30;99.90
44166;DHT22;30476;53.468;9.826;2023-08-01T14:50:35;21.30;99.90
44166;DHT22;30476;53.468;9.826;2023-08-01T14:53:01;21.20;99.90
44166;DHT22;30476;53.468;9.826;2023-08-01T14:55:32;21.20;99.90
44166;DHT22;30476;53.468;9.826;2023-08-01T14:57:58;21.20;99.90
44166;DHT22;30476;53.468;9.826;2023-08-01T15:00:24;21.10;99.90
44166;DHT22;30476;53.468;9.826;2023-08-01T15:02:50;21.00;99.90
44166;DHT22;30476;53.468;9.826;2023-08-01T15:05:16;21.10;99.90
44166;DHT22;30476;53.468;9.826;2023-08-01T15:07:42;21.00;99.90
44166;DHT22;30476;53.468;9.826;2023-08-01T15:10:09;21.00;99.90
44166;DHT22;30476;53.468;9.826;2023-08-01T15:12:35;21.00;99.90
44166;DHT22;30476;53.468;9.826;2023-08-01T15:15:00;21.00;99.90
44166;DHT22;30476;53.468;9.826;2023-08-01T15:17:26;21.10;99.90
44166;DHT22;30476;53.468;9.826;2023-08-01T15:19:52;21.10;99.90
44166;DHT22;30476;53.468;9.826;2023-08-01T15:22:19;21.20;99.90
44166;DHT22;30476;53.468;9.826;2023-08-01T15:24:45;21.10;99.90
44166;DHT22;30476;53.468;9.826;2023-08-01T15:27:12;21.10;99.90
44166;DHT22;30476;53.468;9.826;2023-08-01T15:29:38;21.10;99.90
44166;DHT22;30476;53.468;9.826;2023-08-01T15:32:04;21.00;99.90